Time;durP1;ratioP1;P1;durP2;ratioP2;P2;SDS_P1;SDS_P2;PMS_P1;PMS_P2;Temp;Humidity;BMP_temperature;BMP_pressure;BME280_temperature;BME280_humidity;BME280_pressure;Samples;Min_cycle;Max_cycle;Signal;HPM_P1;HPM_P2
2023/08/06 00:00:16;;;;;;;8.40;5.43;;;15.70;58.50;;;;;;5016470;28;45999;-72
2023/08/06 00:02:42;;;;;;;10.20;5.57;;;15.70;58.70;;;;;;5017488;28;46447;-72
2023/08/06 00:05:08;;;;;;;9.27;5.70;;;15.60;58.70;;;;;;5018469;28;46494;-70
2023/08/06 00:07:33;;;;;;;11.33;7.30;;;15.60;58.70;;;;;;5016455;28;46434;-71
2023/08/06 00:09:59;;;;;;;11.60;6.93;;;15.60;59.00;;;;;;5016167;28;46405;-71
2023/08/06 00:12:24;;;;;;;10.53;7.00;;;15.60;59.20;;;;;;5015552;28;47114;-70
2023/08/06 00:14:51;;;;;;;14.23;7.73;;;15.50;59.10;;;;;;5014785;28;46366;-71
2023/08/06 00:17:17;;;;;;;14.33;7.40;;;15.50;59.10;;;;;;5016080;28;46405;-70
2023/08/06 00:19:43;;;;;;;12.90;7.33;;;15.50;59.20;;;;;;5017573;28;46405;-70
2023/08/06 00:22:08;;;;;;;13.23;8.20;;;15.50;59.20;;;;;;5013372;28;47510;-70
2023/08/06 00:24:35;;;;;;;13.10;7.47;;;15.50;59.50;;;;;;5016779;28;46435;-71
2023/08/06 00:27:02;;;;;;;16.57;7.50;;;15.40;59.90;;;;;;4991092;28;46566;-70
2023/08/06 00:29:27;;;;;;;11.93;7.27;;;15.30;59.90;;;;;;5013742;28;46837;-71
2023/08/06 00:31:53;;;;;;;9.73;7.47;;;15.40;60.00;;;;;;5016147;28;46547;-71
2023/08/06 00:34:20;;;;;;;11.90;7.47;;;15.40;59.90;;;;;;5015467;28;46427;-70
2023/08/06 00:36:45;;;;;;;11.67;7.93;;;15.40;59.90;;;;;;5009417;28;46383;-72
2023/08/06 00:39:11;;;;;;;11.17;7.30;;;15.40;59.90;;;;;;5020817;28;46694;-68
2023/08/06 00:41:37;;;;;;;11.47;8.00;;;15.40;59.90;;;;;;5020138;28;46542;-68
2023/08/06 00:44:03;;;;;;;15.50;7.33;;;15.40;59.90;;;;;;5018088;28;47425;-71
2023/08/06 00:46:28;;;;;;;14.40;7.63;;;15.40;59.70;;;;;;5018569;28;46411;-70
2023/08/06 00:48:55;;;;;;;12.67;7.67;;;15.40;59.70;;;;;;5015168;28;46489;-71
2023/08/06 00:51:23;;;;;;;12.03;7.50;;;15.40;59.60;;;;;;5019108;28;46997;-71
2023/08/06 00:53:49;;;;;;;9.93;6.90;;;15.40;59.70;;;;;;5018808;28;46459;-70
2023/08/06 00:56:15;;;;;;;8.63;5.73;;;15.40;59.70;;;;;;5016135;28;46449;-69
2023/08/06 00:58:41;;;;;;;9.40;5.50;;;15.30;59.90;;;;;;5024157;28;46417;-70
2023/08/06 01:01:07;;;;;;;6.73;5.03;;;15.30;60.00;;;;;;5019931;28;47042;-70
2023/08/06 01:03:33;;;;;;;8.43;5.10;;;15.30;60.00;;;;;;5019580;28;46674;-71
2023/08/06 01:05:59;;;;;;;7.63;4.20;;;15.30;60.00;;;;;;5015415;28;46490;-71
2023/08/06 01:08:56;;;;;;;6.87;4.60;;;15.30;60.00;;;;;;5017642;28;46479;-71
2023/08/06 01:11:22;;;;;;;6.63;4.00;;;15.30;60.00;;;;;;5013483;28;46694;-71
2023/08/06 01:13:54;;;;;;;6.00;4.07;;;15.30;60.00;;;;;;5013631;28;46399;-72
2023/08/06 01:16:21;;;;;;;7.77;4.60;;;15.20;60.00;;;;;;5020420;28;46414;-70
2023/08/06 01:18:49;;;;;;;6.43;4.13;;;15.20;60.10;;;;;;5024061;28;46459;-71
2023/08/06 01:21:18;;;;;;;6.63;4.00;;;15.10;60.10;;;;;;5022275;28;47217;-70
2023/08/06 01:23:46;;;;;;;7.30;3.70;;;15.10;60.20;;;;;;5021353;28;46427;-69
2023/08/06 01:26:30;;;;;;;6.70;4.10;;;15.10;60.50;;;;;;5022924;28;46544;-72
2023/08/06 01:29:07;;;;;;;5.80;3.83;;;15.00;60.70;;;;;;5019881;28;46141;-72
2023/08/06 01:31:37;;;;;;;6.23;4.00;;;14.90;60.70;;;;;;5024881;28;46476;-70
2023/08/06 01:34:07;;;;;;;6.83;4.30;;;14.90;61.10;;;;;;5019502;28;46426;-70
2023/08/06 01:36:33;;;;;;;5.50;4.00;;;14.80;61.10;;;;;;5021469;28;46509;-70
2023/08/06 01:38:59;;;;;;;6.43;3.83;;;14.80;61.20;;;;;;5019661;28;46468;-69
2023/08/06 01:41:25;;;;;;;8.70;4.00;;;14.80;61.30;;;;;;5020985;28;48090;-71
2023/08/06 01:43:50;;;;;;;6.67;4.20;;;14.70;61.40;;;;;;5023106;28;46413;-72
2023/08/06 01:46:16;;;;;;;5.90;4.03;;;14.70;61.50;;;;;;5027121;28;46499;-70
2023/08/06 01:48:42;;;;;;;8.57;4.37;;;14.70;61.50;;;;;;5026766;28;46926;-71
2023/08/06 01:51:07;;;;;;;10.63;4.70;;;14.60;61.50;;;;;;5019706;28;46418;-70
2023/08/06 01:53:33;;;;;;;6.23;4.20;;;14.60;61.70;;;;;;5017006;28;46533;-70
2023/08/06 01:55:59;;;;;;;5.93;3.63;;;14.50;61.80;;;;;;5021681;28;45835;-71
2023/08/06 01:58:25;;;;;;;7.93;4.37;;;14.40;61.90;;;;;;5024967;28;46424;-72
2023/08/06 02:00:50;;;;;;;7.30;4.07;;;14.40;62.30;;;;;;5021472;28;47292;-71
2023/08/06 02:03:16;;;;;;;6.90;3.93;;;14.30;62.30;;;;;;5023037;28;46401;-71
2023/08/06 02:05:42;;;;;;;5.43;3.80;;;14.20;62.40;;;;;;5021232;28;46704;-72
2023/08/06 02:08:07;;;;;;;5.90;3.80;;;14.20;62.40;;;;;;5017166;28;46696;-71
2023/08/06 02:10:33;;;;;;;11.93;4.00;;;14.20;62.30;;;;;;5020774;28;46412;-71
2023/08/06 02:12:59;;;;;;;8.10;4.50;;;14.20;62.30;;;;;;5020359;28;45862;-71
2023/08/06 02:15:25;;;;;;;7.60;4.03;;;14.20;62.20;;;;;;5021892;28;46654;-70
2023/08/06 02:17:50;;;;;;;8.90;5.00;;;14.30;62.10;;;;;;5020590;28;46934;-71
2023/08/06 02:20:16;;;;;;;14.73;4.63;;;14.40;61.90;;;;;;5017074;28;46475;-71
2023/08/06 02:22:42;;;;;;;6.20;4.43;;;14.40;61.50;;;;;;5021118;28;46475;-71
2023/08/06 02:25:08;;;;;;;8.27;4.47;;;14.40;61.50;;;;;;5022644;28;46444;-71
2023/08/06 02:27:33;;;;;;;7.10;4.80;;;14.50;61.50;;;;;;5024128;28;46475;-71
2023/08/06 02:29:59;;;;;;;8.23;4.77;;;14.50;61.40;;;;;;5019003;28;46181;-71
2023/08/06 02:32:24;;;;;;;7.73;4.83;;;14.50;61.20;;;;;;5019009;28;46689;-71
2023/08/06 02:34:50;;;;;;;7.87;5.33;;;14.50;61.50;;;;;;5016565;28;46540;-70
2023/08/06 02:37:15;;;;;;;13.00;4.93;;;14.50;61.40;;;;;;5017373;28;46519;-71
2023/08/06 02:39:41;;;;;;;5.60;4.00;;;14.40;61.50;;;;;;5020544;28;47111;-71
2023/08/06 02:42:08;;;;;;;8.40;4.50;;;14.40;61.70;;;;;;5016690;28;46571;-70
2023/08/06 02:44:35;;;;;;;6.40;4.20;;;14.40;62.10;;;;;;5017198;28;46187;-71
2023/08/06 02:47:01;;;;;;;6.93;4.27;;;14.30;62.10;;;;;;5019948;28;45930;-70
2023/08/06 02:49:26;;;;;;;6.97;5.03;;;14.30;62.30;;;;;;5022645;28;46802;-71
2023/08/06 02:51:52;;;;;;;6.50;4.40;;;14.20;62.40;;;;;;5020565;28;46433;-71
2023/08/06 02:54:20;;;;;;;7.60;3.83;;;14.10;62.70;;;;;;5019237;28;46143;-71
2023/08/06 02:56:46;;;;;;;9.27;3.93;;;14.10;62.80;;;;;;5019876;28;46483;-71
2023/08/06 02:59:12;;;;;;;8.37;4.50;;;14.10;62.90;;;;;;5020933;28;46962;-71
2023/08/06 03:01:38;;;;;;;7.10;4.50;;;14.00;62.80;;;;;;5016704;28;46420;-72
2023/08/06 03:04:04;;;;;;;9.67;3.80;;;14.00;62.70;;;;;;5014414;28;46361;-71
2023/08/06 03:06:30;;;;;;;9.60;4.70;;;14.00;62.80;;;;;;5021943;28;46466;-71
2023/08/06 03:08:55;;;;;;;9.33;4.60;;;13.90;62.80;;;;;;5021439;28;46454;-71
2023/08/06 03:11:21;;;;;;;7.50;4.23;;;13.90;62.90;;;;;;5015913;28;45801;-71
2023/08/06 03:13:47;;;;;;;9.33;4.30;;;13.90;63.00;;;;;;5021147;28;46457;-71
2023/08/06 03:16:13;;;;;;;8.37;4.60;;;13.80;63.00;;;;;;5020347;28;46481;-71
2023/08/06 03:18:39;;;;;;;8.63;4.53;;;13.80;63.00;;;;;;5017775;28;46451;-71
2023/08/06 03:21:05;;;;;;;9.10;5.07;;;13.80;63.00;;;;;;5015641;28;46288;-71
2023/08/06 03:23:30;;;;;;;7.97;4.20;;;13.90;63.00;;;;;;5019683;28;46521;-70
2023/08/06 03:25:56;;;;;;;7.77;4.33;;;13.90;62.90;;;;;;5027225;28;46503;-70
2023/08/06 03:28:22;;;;;;;7.47;3.73;;;14.00;62.70;;;;;;5022733;28;48154;-71
2023/08/06 03:30:48;;;;;;;6.80;4.60;;;14.00;62.30;;;;;;5021157;28;46448;-71
2023/08/06 03:33:13;;;;;;;6.77;4.27;;;14.10;62.30;;;;;;5022584;28;45974;-71
2023/08/06 03:35:39;;;;;;;5.70;4.03;;;14.10;62.30;;;;;;5019043;28;46378;-71
2023/08/06 03:38:05;;;;;;;6.80;4.00;;;14.10;62.30;;;;;;5022649;28;46918;-70
2023/08/06 03:40:31;;;;;;;9.53;3.87;;;14.10;62.70;;;;;;5021417;28;46499;-71
2023/08/06 03:42:56;;;;;;;5.53;3.40;;;14.00;62.80;;;;;;5018318;28;46393;-71
2023/08/06 03:45:22;;;;;;;6.90;3.90;;;14.00;62.90;;;;;;5021100;28;46475;-70
2023/08/06 03:47:48;;;;;;;6.90;3.53;;;13.90;62.90;;;;;;5016411;28;46678;-72
2023/08/06 03:50:13;;;;;;;8.67;4.03;;;14.00;62.90;;;;;;5033733;28;46462;-69
2023/08/06 03:52:39;;;;;;;8.63;4.07;;;13.90;62.80;;;;;;5018592;28;46356;-71
2023/08/06 03:55:05;;;;;;;7.17;3.50;;;13.90;62.80;;;;;;5021340;28;46673;-71
2023/08/06 03:57:30;;;;;;;6.87;3.57;;;13.90;62.80;;;;;;5017428;28;46672;-71
2023/08/06 03:59:56;;;;;;;9.33;4.20;;;13.80;62.90;;;;;;5019974;28;46594;-71
2023/08/06 04:02:22;;;;;;;5.83;3.37;;;13.80;63.00;;;;;;5016602;28;45955;-71
2023/08/06 04:04:47;;;;;;;6.50;3.50;;;13.80;63.10;;;;;;5018674;28;46510;-71
2023/08/06 04:07:13;;;;;;;4.80;3.17;;;13.80;63.00;;;;;;5016167;28;46540;-72
2023/08/06 04:10:00;;;;;;;6.83;3.67;;;13.80;62.80;;;;;;5017078;28;46472;-70
2023/08/06 04:12:26;;;;;;;7.43;3.40;;;13.80;62.60;;;;;;5015310;28;46765;-70
2023/08/06 04:14:52;;;;;;;8.70;4.07;;;13.80;62.30;;;;;;5023394;28;46485;-71
2023/08/06 04:17:21;;;;;;;8.87;3.30;;;13.90;62.30;;;;;;5018708;28;46719;-71
2023/08/06 04:19:58;;;;;;;12.00;4.17;;;14.10;62.00;;;;;;5022830;28;46530;-70
2023/08/06 04:22:25;;;;;;;7.53;4.07;;;14.10;61.70;;;;;;5021888;28;46488;-71
2023/08/06 04:24:50;;;;;;;7.80;3.50;;;14.20;61.50;;;;;;5018646;28;46393;-71
2023/08/06 04:27:17;;;;;;;6.73;3.70;;;14.30;61.20;;;;;;5018462;28;46602;-72
2023/08/06 04:29:43;;;;;;;6.40;3.60;;;14.40;61.10;;;;;;5014838;28;46435;-69
2023/08/06 04:32:10;;;;;;;5.33;3.23;;;14.40;61.30;;;;;;5016545;28;46427;-72
2023/08/06 04:34:36;;;;;;;7.20;3.50;;;14.30;61.40;;;;;;5015709;28;46538;-70
2023/08/06 04:37:03;;;;;;;5.33;3.50;;;14.20;61.80;;;;;;5013598;28;47446;-70
2023/08/06 04:39:28;;;;;;;4.90;3.03;;;14.10;62.20;;;;;;5013750;28;46665;-71
2023/08/06 04:41:56;;;;;;;6.63;3.70;;;14.10;62.30;;;;;;5020367;28;46637;-72
2023/08/06 04:44:21;;;;;;;4.70;3.03;;;14.00;62.40;;;;;;5011634;28;45919;-71
2023/08/06 04:46:47;;;;;;;9.20;3.43;;;13.90;62.60;;;;;;5017964;28;47189;-72
2023/08/06 04:49:13;;;;;;;6.93;3.70;;;13.90;62.60;;;;;;5018510;28;46462;-71
2023/08/06 04:51:38;;;;;;;8.37;3.50;;;13.90;62.70;;;;;;5017194;28;46418;-71
2023/08/06 04:54:04;;;;;;;10.70;3.77;;;13.90;62.70;;;;;;5014811;28;46492;-72
2023/08/06 04:56:29;;;;;;;6.63;3.43;;;13.80;62.70;;;;;;5012388;28;46501;-72
2023/08/06 04:58:55;;;;;;;7.13;3.70;;;13.80;62.60;;;;;;5010834;28;45863;-71
2023/08/06 05:01:21;;;;;;;8.03;4.00;;;13.90;62.50;;;;;;5016177;28;46283;-71
2023/08/06 05:03:47;;;;;;;6.67;4.10;;;13.90;62.40;;;;;;5019141;28;46396;-71
2023/08/06 05:06:13;;;;;;;5.37;3.30;;;14.00;62.40;;;;;;5020830;28;46065;-71
2023/08/06 05:08:38;;;;;;;4.77;2.97;;;14.20;62.40;;;;;;5018066;28;45887;-69
2023/08/06 05:11:04;;;;;;;4.10;2.50;;;15.70;62.50;;;;;;5017411;28;46412;-71
2023/08/06 05:13:30;;;;;;;9.70;2.40;;;17.00;61.00;;;;;;5019553;28;46361;-70
2023/08/06 05:15:56;;;;;;;5.63;2.40;;;18.00;59.10;;;;;;5018270;28;46349;-70
2023/08/06 05:18:21;;;;;;;4.30;2.03;;;18.80;56.90;;;;;;5018242;28;46399;-70
2023/08/06 05:20:47;;;;;;;3.40;2.00;;;19.60;55.90;;;;;;5022734;28;46485;-72
2023/08/06 05:23:13;;;;;;;3.53;2.10;;;20.20;53.80;;;;;;5019058;28;46660;-71
2023/08/06 05:25:39;;;;;;;4.07;1.73;;;20.50;51.30;;;;;;5019749;28;46332;-71
2023/08/06 05:28:04;;;;;;;3.60;2.13;;;19.70;52.10;;;;;;5019425;28;46710;-70
2023/08/06 05:30:30;;;;;;;3.83;2.00;;;20.00;51.20;;;;;;5016388;28;46505;-71
2023/08/06 05:32:56;;;;;;;3.47;1.90;;;20.70;48.30;;;;;;5016886;28;46400;-72
2023/08/06 05:35:22;;;;;;;6.00;2.13;;;20.00;47.70;;;;;;5017860;28;46403;-70
2023/08/06 05:37:48;;;;;;;5.13;2.00;;;19.50;48.60;;;;;;5017092;28;46415;-72
2023/08/06 05:40:14;;;;;;;5.03;2.07;;;18.90;49.20;;;;;;5016684;28;46786;-68
2023/08/06 05:42:40;;;;;;;4.80;1.80;;;18.40;49.60;;;;;;5014078;28;46891;-68
2023/08/06 05:45:06;;;;;;;3.93;1.90;;;18.10;49.60;;;;;;5016638;28;47098;-69
2023/08/06 05:47:32;;;;;;;3.70;1.80;;;18.20;48.90;;;;;;5018734;28;45879;-69
2023/08/06 05:49:57;;;;;;;6.03;2.00;;;18.40;47.80;;;;;;5014512;28;46429;-67
2023/08/06 05:52:23;;;;;;;3.43;1.80;;;18.90;46.60;;;;;;5012527;28;46508;-67
2023/08/06 05:54:49;;;;;;;3.50;1.90;;;19.80;42.50;;;;;;5018214;28;47190;-67
2023/08/06 05:57:15;;;;;;;3.60;1.77;;;20.80;38.60;;;;;;5017497;28;46456;-67
2023/08/06 05:59:41;;;;;;;4.70;1.80;;;21.60;35.50;;;;;;5018405;28;46760;-68
2023/08/06 06:02:06;;;;;;;3.30;1.73;;;22.00;32.10;;;;;;5025034;28;46626;-67
2023/08/06 06:04:32;;;;;;;6.70;1.97;;;22.50;31.80;;;;;;5018232;28;47146;-66
2023/08/06 06:06:58;;;;;;;3.63;1.87;;;22.90;30.00;;;;;;5022461;28;46810;-66
2023/08/06 06:09:23;;;;;;;6.07;2.23;;;23.40;27.60;;;;;;5051632;22;46392;-72
2023/08/06 06:11:50;;;;;;;6.67;1.80;;;23.20;26.80;;;;;;5043551;28;46529;-72
2023/08/06 06:14:17;;;;;;;7.10;1.60;;;22.80;25.60;;;;;;5043792;28;46510;-69
2023/08/06 06:16:42;;;;;;;3.17;1.60;;;22.50;25.80;;;;;;5040999;28;46322;-69
2023/08/06 06:19:08;;;;;;;3.50;1.90;;;22.90;25.30;;;;;;5049808;28;46403;-69
2023/08/06 06:21:33;;;;;;;5.83;1.67;;;23.50;24.90;;;;;;5041395;28;46189;-72
2023/08/06 06:23:59;;;;;;;4.57;1.60;;;23.70;23.40;;;;;;5040506;28;46612;-70
2023/08/06 06:26:25;;;;;;;4.20;2.07;;;23.30;22.90;;;;;;5041604;28;46897;-71
2023/08/06 06:28:50;;;;;;;3.33;1.57;;;22.50;24.30;;;;;;5036489;28;46458;-70
2023/08/06 06:31:16;;;;;;;6.67;1.73;;;21.20;26.90;;;;;;5039665;28;46508;-71
2023/08/06 06:33:41;;;;;;;3.70;1.50;;;20.30;29.00;;;;;;5042861;28;46544;-70
2023/08/06 06:36:07;;;;;;;3.87;2.03;;;19.60;30.20;;;;;;5038428;28;46459;-70
2023/08/06 06:38:34;;;;;;;7.90;1.80;;;18.90;31.80;;;;;;5038033;28;45869;-72
2023/08/06 06:40:59;;;;;;;4.80;2.00;;;18.50;32.70;;;;;;5037808;28;45991;-70
2023/08/06 06:43:26;;;;;;;5.80;1.80;;;18.10;33.60;;;;;;5033743;28;46084;-71
2023/08/06 06:45:58;;;;;;;3.73;1.60;;;17.60;35.00;;;;;;5037422;28;46497;-70
2023/08/06 06:48:25;;;;;;;8.30;2.00;;;17.40;35.90;;;;;;5041136;28;46398;-71
2023/08/06 06:50:51;;;;;;;4.90;2.07;;;17.20;36.30;;;;;;5041607;28;46468;-71
2023/08/06 06:53:16;;;;;;;4.50;1.83;;;17.10;36.80;;;;;;5038732;28;46485;-70
2023/08/06 06:55:42;;;;;;;3.97;1.50;;;17.20;36.90;;;;;;5042105;28;46418;-70
2023/08/06 06:58:08;;;;;;;3.93;2.07;;;17.20;37.10;;;;;;5041767;28;46430;-71
2023/08/06 07:00:36;;;;;;;5.80;2.80;;;17.30;36.80;;;;;;5039645;28;46571;-71
2023/08/06 07:03:02;;;;;;;4.77;1.80;;;17.40;36.60;;;;;;5038629;28;46407;-71
2023/08/06 07:05:28;;;;;;;4.17;1.90;;;17.50;36.60;;;;;;5041925;28;46538;-70
2023/08/06 07:07:53;;;;;;;6.10;2.20;;;17.60;36.40;;;;;;5024085;28;46495;-71
2023/08/06 07:10:19;;;;;;;4.53;2.33;;;17.70;36.40;;;;;;5037059;28;46422;-71
2023/08/06 07:12:44;;;;;;;4.40;2.67;;;17.80;36.70;;;;;;5038538;28;48086;-71
2023/08/06 07:15:10;;;;;;;3.60;1.87;;;17.80;36.80;;;;;;5039069;28;46391;-71
2023/08/06 07:17:36;;;;;;;3.87;2.00;;;17.90;37.10;;;;;;5041085;28;46402;-72
2023/08/06 07:20:02;;;;;;;4.50;1.40;;;18.00;37.20;;;;;;5038373;28;46936;-71
2023/08/06 07:22:28;;;;;;;4.30;1.50;;;18.00;37.10;;;;;;5042666;28;46682;-71
2023/08/06 07:24:54;;;;;;;3.07;1.40;;;18.20;36.90;;;;;;5042599;28;46312;-71
2023/08/06 07:27:19;;;;;;;4.57;1.40;;;18.30;36.70;;;;;;5041092;28;46668;-71
2023/08/06 07:29:45;;;;;;;3.63;1.53;;;18.30;36.80;;;;;;5036970;28;46367;-71
2023/08/06 07:32:10;;;;;;;5.20;1.40;;;18.20;37.00;;;;;;5041190;28;47187;-71
2023/08/06 07:34:36;;;;;;;3.00;1.20;;;18.20;37.30;;;;;;5038232;28;46533;-71
2023/08/06 07:37:01;;;;;;;4.70;1.70;;;18.00;37.40;;;;;;5039889;28;46691;-71
2023/08/06 07:39:28;;;;;;;4.20;1.93;;;17.90;37.70;;;;;;5036704;28;46632;-72
2023/08/06 07:41:54;;;;;;;3.67;1.40;;;18.20;37.70;;;;;;5038579;28;48320;-71
2023/08/06 07:44:19;;;;;;;5.83;1.20;;;18.80;36.70;;;;;;5042022;28;46742;-72
2023/08/06 07:46:45;;;;;;;4.00;1.30;;;19.10;35.20;;;;;;5040993;28;46355;-72
2023/08/06 07:49:11;;;;;;;3.20;1.20;;;19.20;35.00;;;;;;5039435;28;46414;-72
2023/08/06 07:51:36;;;;;;;3.40;1.60;;;19.40;33.70;;;;;;5035210;28;46383;-70
2023/08/06 07:54:03;;;;;;;3.43;1.30;;;19.40;33.50;;;;;;5040487;28;45892;-71
2023/08/06 07:56:28;;;;;;;3.70;1.30;;;19.30;33.40;;;;;;5039952;28;46378;-73
2023/08/06 07:58:54;;;;;;;5.57;1.20;;;18.80;32.90;;;;;;5038180;28;46419;-67
2023/08/06 08:01:19;;;;;;;2.80;1.10;;;18.70;33.50;;;;;;5043935;28;46429;-68
2023/08/06 08:03:45;;;;;;;3.80;1.27;;;18.30;34.10;;;;;;5040044;28;46329;-67
2023/08/06 08:06:11;;;;;;;3.03;1.10;;;18.00;36.10;;;;;;5045252;28;46395;-68
2023/08/06 08:08:38;;;;;;;5.13;1.27;;;17.90;35.50;;;;;;5035932;28;46442;-71
2023/08/06 08:11:05;;;;;;;2.93;1.10;;;17.70;35.90;;;;;;5031857;28;46446;-69
2023/08/06 08:13:30;;;;;;;2.53;0.90;;;17.70;36.00;;;;;;5040883;28;46319;-68
2023/08/06 08:15:59;;;;;;;3.40;1.10;;;17.70;35.90;;;;;;5040252;28;46512;-69
2023/08/06 08:18:25;;;;;;;4.63;1.40;;;17.70;35.80;;;;;;5039151;28;46663;-68
2023/08/06 08:20:51;;;;;;;3.27;1.23;;;17.80;35.50;;;;;;5049246;28;46340;-68
2023/08/06 08:23:17;;;;;;;2.57;0.90;;;17.80;35.40;;;;;;5042958;28;46435;-68
2023/08/06 08:25:42;;;;;;;3.50;0.83;;;17.90;35.60;;;;;;5036495;28;46439;-66
2023/08/06 08:28:08;;;;;;;2.30;0.93;;;17.80;35.30;;;;;;5035176;28;46549;-68
2023/08/06 08:30:33;;;;;;;2.70;1.03;;;17.50;35.40;;;;;;5039592;28;46362;-68
2023/08/06 08:32:59;;;;;;;4.53;0.90;;;17.20;35.90;;;;;;5043502;28;46415;-68
2023/08/06 08:35:25;;;;;;;3.77;0.80;;;17.10;36.40;;;;;;5039821;28;46412;-67
2023/08/06 08:37:51;;;;;;;3.60;0.80;;;17.00;36.40;;;;;;5035317;28;46955;-67
2023/08/06 08:40:17;;;;;;;5.20;0.90;;;16.90;36.70;;;;;;5038107;28;46490;-69
2023/08/06 08:42:43;;;;;;;2.70;0.97;;;16.70;36.90;;;;;;5043346;28;46459;-67
2023/08/06 08:45:15;;;;;;;4.07;1.20;;;16.80;37.30;;;;;;5040427;28;46612;-66
2023/08/06 08:47:44;;;;;;;3.80;0.93;;;16.80;37.10;;;;;;5041261;28;46359;-67
2023/08/06 08:50:14;;;;;;;4.90;0.90;;;16.80;36.60;;;;;;5036101;28;46676;-69
2023/08/06 08:52:40;;;;;;;2.50;0.83;;;16.90;36.30;;;;;;5045031;28;48366;-69
2023/08/06 08:55:08;;;;;;;3.80;0.83;;;17.00;35.90;;;;;;5040682;28;46530;-69
2023/08/06 08:57:33;;;;;;;4.93;0.90;;;17.20;35.50;;;;;;5040537;28;46383;-69
2023/08/06 08:59:59;;;;;;;3.00;0.90;;;17.50;34.80;;;;;;5057447;28;47085;-69
2023/08/06 09:02:31;;;;;;;3.00;0.70;;;17.60;34.00;;;;;;5039327;28;46483;-69
2023/08/06 09:05:01;;;;;;;2.60;0.80;;;17.70;33.50;;;;;;5038242;28;46399;-68
2023/08/06 09:07:29;;;;;;;3.53;0.80;;;17.60;33.60;;;;;;5048233;28;46519;-68
2023/08/06 09:09:56;;;;;;;2.90;0.90;;;17.40;33.70;;;;;;5043429;28;47225;-68
2023/08/06 09:12:22;;;;;;;8.93;1.00;;;17.30;34.10;;;;;;5042038;28;46414;-67
2023/08/06 09:14:48;;;;;;;2.73;0.97;;;17.40;34.30;;;;;;5033797;28;46344;-67
2023/08/06 09:17:13;;;;;;;2.67;0.90;;;17.50;33.80;;;;;;5036030;28;46338;-68
2023/08/06 09:19:48;;;;;;;2.77;0.90;;;17.80;33.30;;;;;;5045907;28;47098;-67
2023/08/06 09:22:13;;;;;;;3.40;0.70;;;17.90;32.10;;;;;;5038353;28;46506;-67
2023/08/06 09:24:41;;;;;;;3.90;1.10;;;17.90;32.20;;;;;;5039185;28;46419;-69
2023/08/06 09:27:14;;;;;;;4.00;1.43;;;17.90;32.20;;;;;;5042413;28;46614;-68
2023/08/06 09:29:41;;;;;;;2.10;0.80;;;17.70;32.00;;;;;;5039169;28;48583;-69
2023/08/06 09:32:08;;;;;;;5.00;0.90;;;17.70;32.50;;;;;;5029451;28;46838;-68
2023/08/06 09:34:33;;;;;;;6.43;1.27;;;17.90;32.10;;;;;;5038562;28;46138;-69
2023/08/06 09:36:59;;;;;;;3.03;0.70;;;18.00;32.30;;;;;;5038638;28;46530;-69
2023/08/06 09:39:29;;;;;;;2.60;0.83;;;18.50;32.20;;;;;;5039817;28;46486;-69
2023/08/06 09:41:59;;;;;;;4.73;0.80;;;18.70;31.20;;;;;;5033418;28;46485;-71
2023/08/06 09:44:26;;;;;;;2.60;1.00;;;18.40;31.40;;;;;;5039624;28;46431;-69
2023/08/06 09:46:53;;;;;;;2.10;0.70;;;18.40;31.70;;;;;;5051154;28;46414;-69
2023/08/06 09:49:42;;;;;;;2.90;0.90;;;18.10;32.30;;;;;;5037513;28;46560;-68
2023/08/06 09:52:11;;;;;;;2.97;1.00;;;18.10;32.30;;;;;;5036334;28;46211;-67
2023/08/06 09:54:38;;;;;;;2.20;0.70;;;17.90;32.10;;;;;;5042408;28;46406;-68
2023/08/06 09:57:05;;;;;;;4.20;0.80;;;18.10;32.40;;;;;;5042757;28;46430;-67
2023/08/06 09:59:32;;;;;;;1.80;0.60;;;18.10;32.30;;;;;;5042321;28;46694;-67
2023/08/06 10:01:58;;;;;;;2.63;1.00;;;18.20;32.40;;;;;;5046464;28;46733;-67
2023/08/06 10:04:24;;;;;;;2.10;0.77;;;18.40;32.30;;;;;;5046017;28;46517;-67
2023/08/06 10:06:50;;;;;;;2.40;0.70;;;18.40;32.20;;;;;;5047219;28;46390;-68
2023/08/06 10:09:16;;;;;;;2.10;0.70;;;18.30;32.10;;;;;;5048461;28;47031;-67
2023/08/06 10:11:47;;;;;;;2.27;0.70;;;18.00;32.20;;;;;;5044230;28;46550;-67
2023/08/06 10:14:18;;;;;;;8.03;0.90;;;18.10;32.40;;;;;;5040882;28;46450;-71
2023/08/06 10:16:44;;;;;;;2.50;0.93;;;18.40;32.70;;;;;;5043828;28;46447;-68
2023/08/06 10:19:12;;;;;;;2.87;1.03;;;18.60;32.70;;;;;;5061065;28;47162;-68
2023/08/06 10:21:41;;;;;;;2.10;0.70;;;18.90;32.40;;;;;;5047963;28;45834;-68
2023/08/06 10:24:14;;;;;;;2.77;0.87;;;18.90;31.40;;;;;;5028989;28;45808;-68
2023/08/06 10:26:40;;;;;;;2.73;0.73;;;19.10;31.30;;;;;;5043888;28;46447;-68
2023/08/06 10:29:37;;;;;;;5.90;0.80;;;19.40;30.70;;;;;;5052136;28;46414;-68
2023/08/06 10:32:04;;;;;;;2.00;0.80;;;19.50;29.80;;;;;;5062553;28;46370;-68
2023/08/06 10:34:58;;;;;;;2.27;0.70;;;19.50;30.20;;;;;;5044120;28;45863;-68
2023/08/06 10:37:35;;;;;;;2.40;0.70;;;19.40;30.20;;;;;;5044402;28;46849;-68
2023/08/06 10:40:01;;;;;;;2.00;0.70;;;19.20;31.00;;;;;;5043134;28;46844;-68
2023/08/06 10:42:30;;;;;;;3.10;0.70;;;19.10;31.70;;;;;;5042545;28;45797;-68
2023/08/06 10:45:15;;;;;;;2.63;0.80;;;19.00;32.00;;;;;;5046372;28;46386;-68
2023/08/06 10:47:44;;;;;;;1.90;0.70;;;18.50;32.70;;;;;;5043379;28;46389;-67
2023/08/06 10:50:16;;;;;;;2.87;0.80;;;18.30;33.10;;;;;;5040413;28;46468;-68
2023/08/06 10:52:43;;;;;;;2.10;0.60;;;18.20;33.30;;;;;;5054733;28;45806;-68
2023/08/06 10:55:09;;;;;;;2.10;0.70;;;18.10;34.00;;;;;;5046785;28;46453;-68
2023/08/06 10:57:35;;;;;;;1.87;0.63;;;18.20;35.10;;;;;;5052742;28;46479;-68
2023/08/06 11:00:01;;;;;;;2.80;0.70;;;18.20;33.90;;;;;;5036936;28;47099;-68
2023/08/06 11:02:27;;;;;;;2.00;0.70;;;18.50;33.60;;;;;;5056336;28;46633;-68
2023/08/06 11:04:53;;;;;;;2.07;0.70;;;18.80;32.90;;;;;;5045144;28;46447;-68
2023/08/06 11:07:19;;;;;;;1.97;0.77;;;19.00;32.30;;;;;;5039082;28;46412;-68
2023/08/06 11:09:44;;;;;;;2.50;0.70;;;19.20;31.70;;;;;;5038769;28;46437;-68
2023/08/06 11:12:10;;;;;;;1.90;0.70;;;19.10;32.10;;;;;;5046516;28;46664;-68
2023/08/06 11:14:36;;;;;;;2.07;0.70;;;18.80;32.60;;;;;;5062808;28;46423;-68
2023/08/06 11:17:02;;;;;;;3.60;0.77;;;18.50;32.70;;;;;;5050683;28;46625;-68
2023/08/06 11:19:27;;;;;;;1.77;0.60;;;18.50;32.70;;;;;;5050915;28;46300;-68
2023/08/06 11:21:54;;;;;;;2.07;0.70;;;18.60;32.70;;;;;;5049472;28;45715;-68
2023/08/06 11:24:20;;;;;;;2.10;0.70;;;18.70;32.80;;;;;;5045492;28;46618;-68
2023/08/06 11:26:45;;;;;;;2.83;0.70;;;18.70;32.90;;;;;;5042948;28;46526;-68
2023/08/06 11:29:11;;;;;;;2.00;0.70;;;18.70;32.80;;;;;;5054115;28;46447;-68
2023/08/06 11:31:36;;;;;;;2.10;0.80;;;18.80;32.90;;;;;;5049442;28;46454;-68
2023/08/06 11:34:03;;;;;;;3.03;0.87;;;19.00;32.70;;;;;;5049660;28;46476;-68
2023/08/06 11:36:33;;;;;;;2.20;0.70;;;19.20;32.30;;;;;;5046878;28;46497;-68
2023/08/06 11:39:02;;;;;;;1.90;0.70;;;19.60;31.60;;;;;;5041359;28;47501;-68
2023/08/06 11:41:32;;;;;;;1.90;0.70;;;20.00;30.60;;;;;;5041658;28;45828;-68
2023/08/06 11:43:58;;;;;;;1.97;0.60;;;20.10;30.10;;;;;;5047241;28;46613;-68
2023/08/06 11:46:25;;;;;;;2.60;0.77;;;20.10;29.80;;;;;;5031618;28;46313;-68
2023/08/06 11:48:59;;;;;;;3.80;0.80;;;20.00;29.70;;;;;;5040058;28;47290;-68
2023/08/06 11:51:26;;;;;;;2.00;0.70;;;20.10;29.40;;;;;;5037016;28;46369;-68
2023/08/06 11:53:55;;;;;;;2.00;0.80;;;20.00;29.30;;;;;;5044169;28;46398;-68
2023/08/06 11:56:21;;;;;;;1.90;0.60;;;20.10;29.20;;;;;;5046133;28;46477;-68
2023/08/06 11:58:46;;;;;;;1.90;0.70;;;20.00;28.40;;;;;;5044986;28;47274;-68
2023/08/06 12:01:14;;;;;;;4.43;1.00;;;19.70;29.10;;;;;;5045721;28;46335;-68
2023/08/06 12:03:42;;;;;;;1.80;0.70;;;19.80;29.10;;;;;;5042058;28;46391;-68
2023/08/06 12:06:08;;;;;;;1.90;0.70;;;20.10;28.80;;;;;;5041315;28;46436;-68
2023/08/06 12:08:33;;;;;;;4.30;0.80;;;20.00;28.40;;;;;;5041185;28;46480;-68
2023/08/06 12:10:59;;;;;;;3.00;0.70;;;19.90;28.80;;;;;;5040645;28;46762;-68
2023/08/06 12:13:25;;;;;;;1.93;0.70;;;19.60;29.30;;;;;;5042358;28;46548;-68
2023/08/06 12:15:53;;;;;;;2.53;0.80;;;19.20;30.00;;;;;;5042340;28;46405;-68
2023/08/06 12:18:19;;;;;;;2.57;0.80;;;19.10;30.50;;;;;;5055360;28;47102;-68
2023/08/06 12:20:44;;;;;;;4.63;0.77;;;19.00;30.90;;;;;;5036099;28;45901;-68
2023/08/06 12:23:10;;;;;;;2.00;0.70;;;19.00;32.10;;;;;;5040846;28;46557;-68
2023/08/06 12:25:35;;;;;;;1.90;0.70;;;19.30;31.50;;;;;;5040754;28;46344;-68
2023/08/06 12:28:01;;;;;;;3.60;1.00;;;19.50;31.20;;;;;;5040944;28;46379;-68
2023/08/06 12:30:27;;;;;;;2.00;0.60;;;19.60;31.10;;;;;;5035538;28;46602;-68
2023/08/06 12:32:52;;;;;;;2.27;0.80;;;19.50;31.10;;;;;;5036637;28;46505;-68
2023/08/06 12:35:19;;;;;;;2.83;0.90;;;19.10;32.20;;;;;;5043544;28;45900;-68
2023/08/06 12:37:45;;;;;;;1.90;0.70;;;18.70;32.80;;;;;;5044572;28;46625;-68
2023/08/06 12:40:11;;;;;;;2.00;0.60;;;18.20;35.70;;;;;;5049953;28;46406;-69
2023/08/06 12:42:36;;;;;;;2.57;0.80;;;17.90;35.00;;;;;;5045880;28;46382;-68